Time;durP1;ratioP1;P1;durP2;ratioP2;P2;SDS_P1;SDS_P2;PMS_P1;PMS_P2;Temp;Humidity;BMP_temperature;BMP_pressure;BME280_temperature;BME280_humidity;BME280_pressure;Samples;Min_cycle;Max_cycle;Signal;HPM_P1;HPM_P2
2023/09/16 00:01:39;;;;;;;9.60;5.35;;;;;;;-141.50;100.00;63355.56;5052003;28;20060;-79
2023/09/16 00:04:06;;;;;;;9.93;5.40;;;;;;;-141.50;100.00;63355.56;5052143;28;20079;-79
2023/09/16 00:06:33;;;;;;;10.05;6.10;;;;;;;-141.50;100.00;63355.56;5044484;28;20041;-79
2023/09/16 00:09:00;;;;;;;9.55;5.15;;;;;;;-141.50;100.00;63355.56;5033973;28;20061;-79
2023/09/16 00:11:27;;;;;;;9.20;5.60;;;;;;;-141.50;100.00;63355.56;5031889;28;20045;-79
2023/09/16 00:13:54;;;;;;;12.40;5.80;;;;;;;-141.50;100.00;63355.56;5031318;28;20052;-79
2023/09/16 00:16:21;;;;;;;11.30;6.47;;;;;;;-141.50;100.00;63355.56;5030052;28;20080;-79
2023/09/16 00:18:48;;;;;;;9.95;5.82;;;;;;;-141.50;100.00;63355.56;5030087;28;20107;-79
2023/09/16 00:21:16;;;;;;;12.32;6.65;;;;;;;-141.50;100.00;63355.56;5029195;28;20401;-78
2023/09/16 00:23:43;;;;;;;14.10;6.35;;;;;;;-141.50;100.00;63355.56;5045830;28;20088;-80
2023/09/16 00:26:10;;;;;;;9.93;5.15;;;;;;;-141.50;100.00;63355.56;5030750;28;20050;-80
2023/09/16 00:28:37;;;;;;;8.32;5.47;;;;;;;-141.50;100.00;63355.56;5028839;28;20053;-80
2023/09/16 00:31:06;;;;;;;8.48;5.43;;;;;;;-141.50;100.00;63355.56;5028265;28;20045;-80
2023/09/16 00:33:33;;;;;;;9.35;5.53;;;;;;;-141.50;100.00;63355.56;5025535;28;20092;-79
2023/09/16 00:36:00;;;;;;;9.32;5.43;;;;;;;-141.50;100.00;63355.56;5029710;28;20053;-79
2023/09/16 00:38:27;;;;;;;9.27;5.28;;;;;;;-141.50;100.00;63355.56;4995743;28;20585;-80
2023/09/16 00:40:54;;;;;;;7.30;4.78;;;;;;;-141.50;100.00;63355.56;5024130;28;20051;-79
2023/09/16 00:43:20;;;;;;;7.53;4.82;;;;;;;-141.50;100.00;63355.56;5014079;28;20052;-79
2023/09/16 00:45:47;;;;;;;8.57;4.93;;;;;;;-141.50;100.00;63355.56;5026768;28;20070;-79
2023/09/16 00:48:16;;;;;;;7.70;4.72;;;;;;;-141.50;100.00;63355.56;5010949;28;20053;-78
2023/09/16 00:50:45;;;;;;;9.27;4.93;;;;;;;-141.50;100.00;63355.56;5026205;28;20116;-79
2023/09/16 00:53:13;;;;;;;9.38;5.05;;;;;;;-141.50;100.00;63355.56;5027686;28;20049;-78
2023/09/16 00:55:40;;;;;;;8.52;4.80;;;;;;;-141.50;100.00;63355.56;5027124;28;20046;-78
2023/09/16 00:58:11;;;;;;;7.55;4.78;;;;;;;-141.50;100.00;63355.56;5030515;28;20122;-79
2023/09/16 01:00:38;;;;;;;7.85;4.57;;;;;;;-141.50;100.00;63355.56;5046598;28;20049;-79
2023/09/16 01:03:09;;;;;;;9.32;4.78;;;;;;;-141.50;100.00;63355.56;5032873;28;20052;-80
2023/09/16 01:05:37;;;;;;;7.50;4.22;;;;;;;-141.50;100.00;63355.56;5032882;28;20438;-80
2023/09/16 01:08:04;;;;;;;10.95;4.85;;;;;;;-141.50;100.00;63355.56;5044470;28;20520;-79
2023/09/16 01:10:32;;;;;;;6.65;3.85;;;;;;;-141.50;100.00;63355.56;5030573;28;20045;-78
2023/09/16 01:12:59;;;;;;;7.82;4.38;;;;;;;-141.50;100.00;63355.56;5029653;28;20132;-79
2023/09/16 01:15:33;;;;;;;8.95;4.47;;;;;;;-141.50;100.00;63355.56;5031010;28;20033;-80
2023/09/16 01:18:06;;;;;;;8.82;4.35;;;;;;;-141.50;100.00;63355.56;5030589;28;20052;-79
2023/09/16 01:20:35;;;;;;;7.57;4.47;;;;;;;-141.50;100.00;63355.56;5012817;28;20041;-79
2023/09/16 01:23:03;;;;;;;8.48;4.53;;;;;;;-141.50;100.00;63355.56;5029683;28;20052;-79
2023/09/16 01:25:30;;;;;;;8.57;4.35;;;;;;;-141.50;100.00;63355.56;5029955;28;20561;-79
2023/09/16 01:27:57;;;;;;;7.47;4.13;;;;;;;-141.50;100.00;63355.56;5046634;28;20435;-80
2023/09/16 01:30:27;;;;;;;7.50;4.40;;;;;;;-141.50;100.00;63355.56;5014570;28;20041;-79
2023/09/16 01:33:13;;;;;;;8.50;4.60;;;;;;;-141.50;100.00;63355.56;5028263;28;20040;-79
2023/09/16 01:35:41;;;;;;;7.75;4.20;;;;;;;-141.50;100.00;63355.56;5054096;28;20049;-79
2023/09/16 01:38:13;;;;;;;7.72;4.82;;;;;;;-141.50;100.00;63355.56;5036124;28;20113;-79
2023/09/16 01:40:42;;;;;;;7.68;4.50;;;;;;;-141.50;100.00;63355.56;5038408;28;20661;-79
2023/09/16 01:43:09;;;;;;;8.57;4.30;;;;;;;-141.50;100.00;63355.56;5040918;28;20108;-80
2023/09/16 01:45:43;;;;;;;8.52;4.32;;;;;;;-141.50;100.00;63355.56;5057309;28;20146;-78
2023/09/16 01:48:11;;;;;;;8.98;4.50;;;;;;;-141.50;100.00;63355.56;5039036;28;20491;-80
2023/09/16 01:50:38;;;;;;;7.70;4.68;;;;;;;-141.50;100.00;63355.56;5033791;28;20065;-80
2023/09/16 01:53:07;;;;;;;8.23;4.20;;;;;;;-141.50;100.00;63355.56;5030845;28;20503;-79
2023/09/16 01:55:34;;;;;;;8.35;4.22;;;;;;;-141.50;100.00;63355.56;5030881;28;20034;-79
2023/09/16 01:58:01;;;;;;;7.97;4.30;;;;;;;-141.50;100.00;63355.56;5028534;28;20101;-79
2023/09/16 02:00:28;;;;;;;7.65;4.40;;;;;;;-141.50;100.00;63355.56;5043916;28;20503;-79
2023/09/16 02:02:57;;;;;;;6.85;4.15;;;;;;;-141.50;100.00;63355.56;5026912;28;20600;-80
2023/09/16 02:05:27;;;;;;;7.43;4.25;;;;;;;-141.50;100.00;63355.56;5026362;28;20120;-80
2023/09/16 02:07:57;;;;;;;6.50;3.90;;;;;;;-141.50;100.00;63355.56;5027838;28;20042;-80
2023/09/16 02:10:24;;;;;;;6.97;4.13;;;;;;;-141.50;100.00;63355.56;5006529;28;20124;-79
2023/09/16 02:12:54;;;;;;;7.75;4.00;;;;;;;-141.50;100.00;63355.56;5028333;28;20046;-79
2023/09/16 02:15:21;;;;;;;9.50;3.95;;;;;;;-141.50;100.00;63355.56;5027225;28;20148;-80
2023/09/16 02:17:47;;;;;;;8.70;4.00;;;;;;;-141.50;100.00;63355.56;5023547;28;20049;-80
2023/09/16 02:20:14;;;;;;;6.25;4.22;;;;;;;-141.50;100.00;63355.56;5028574;28;20048;-80
2023/09/16 02:22:44;;;;;;;6.82;3.80;;;;;;;-141.50;100.00;63355.56;5011644;28;20129;-80
2023/09/16 02:25:11;;;;;;;6.20;3.67;;;;;;;-141.50;100.00;63355.56;5027916;28;20057;-80
2023/09/16 02:27:40;;;;;;;5.90;3.85;;;;;;;-141.50;100.00;63355.56;5028634;28;20586;-79
2023/09/16 02:30:08;;;;;;;10.32;4.13;;;;;;;-141.50;100.00;63355.56;5026523;28;20103;-79
2023/09/16 02:32:35;;;;;;;8.27;4.20;;;;;;;-141.50;100.00;63355.56;5027900;28;20045;-78
2023/09/16 02:35:03;;;;;;;8.90;4.47;;;;;;;-141.50;100.00;63355.56;5026995;28;20091;-78
2023/09/16 02:37:30;;;;;;;5.97;3.72;;;;;;;-141.50;100.00;63355.56;5028371;28;20133;-79
2023/09/16 02:39:57;;;;;;;6.63;4.05;;;;;;;-141.50;100.00;63355.56;5026322;28;20049;-79
2023/09/16 02:42:24;;;;;;;7.10;4.00;;;;;;;-141.50;100.00;63355.56;5022558;28;20045;-79
2023/09/16 02:44:51;;;;;;;7.18;4.32;;;;;;;-141.50;100.00;63355.56;5012556;28;20045;-78
2023/09/16 02:47:20;;;;;;;8.32;3.85;;;;;;;-141.50;100.00;63355.56;5027573;28;20053;-77
2023/09/16 02:49:48;;;;;;;6.90;3.75;;;;;;;-141.50;100.00;63355.56;5009469;28;20450;-78
2023/09/16 02:52:18;;;;;;;6.50;3.80;;;;;;;-141.50;100.00;63355.56;5022770;28;20543;-78
2023/09/16 02:54:45;;;;;;;6.63;3.83;;;;;;;-141.50;100.00;63355.56;4994410;28;20060;-78
2023/09/16 02:57:12;;;;;;;8.38;4.53;;;;;;;-141.50;100.00;63355.56;5025772;28;20038;-79
2023/09/16 02:59:39;;;;;;;6.85;3.90;;;;;;;-141.50;100.00;63355.56;5009167;28;20498;-80
2023/09/16 03:02:06;;;;;;;7.97;4.10;;;;;;;-141.50;100.00;63355.56;5026546;28;20461;-78
2023/09/16 03:04:34;;;;;;;6.82;4.03;;;;;;;-141.50;100.00;63355.56;5013247;28;20041;-78
2023/09/16 03:07:01;;;;;;;7.30;4.20;;;;;;;-141.50;100.00;63355.56;5013258;28;20052;-80
2023/09/16 03:09:28;;;;;;;7.80;4.35;;;;;;;-141.50;100.00;63355.56;5015164;28;20427;-80
2023/09/16 03:11:55;;;;;;;7.95;4.22;;;;;;;-141.50;100.00;63355.56;5031254;28;20038;-79
2023/09/16 03:14:22;;;;;;;5.95;3.97;;;;;;;-141.50;100.00;63355.56;5031159;28;20041;-79
2023/09/16 03:16:49;;;;;;;7.63;4.38;;;;;;;-141.50;100.00;63355.56;5013426;28;20570;-78
2023/09/16 03:19:17;;;;;;;6.88;3.80;;;;;;;-141.50;100.00;63355.56;5033039;28;20084;-80
2023/09/16 03:21:44;;;;;;;6.70;4.22;;;;;;;-141.50;100.00;63355.56;5033800;28;20049;-78
2023/09/16 03:24:11;;;;;;;7.65;4.57;;;;;;;-141.50;100.00;63355.56;5030640;28;20057;-78
2023/09/16 03:26:38;;;;;;;6.95;4.00;;;;;;;-141.50;100.00;63355.56;5047299;28;20186;-78
2023/09/16 03:29:05;;;;;;;7.50;4.32;;;;;;;-141.50;100.00;63355.56;5030004;28;20056;-78
2023/09/16 03:31:32;;;;;;;7.60;4.38;;;;;;;-141.50;100.00;63355.56;5028649;28;20037;-77
2023/09/16 03:34:06;;;;;;;8.63;4.93;;;;;;;-141.50;100.00;63355.56;5045247;28;20468;-79
2023/09/16 03:36:33;;;;;;;9.88;4.90;;;;;;;-141.50;100.00;63355.56;5029601;28;20107;-79
2023/09/16 03:39:00;;;;;;;9.95;4.43;;;;;;;-141.50;100.00;63355.56;5030031;28;20135;-80
2023/09/16 03:41:26;;;;;;;6.90;4.15;;;;;;;-141.50;100.00;63355.56;5037282;28;20077;-79
2023/09/16 03:43:57;;;;;;;7.65;4.47;;;;;;;-141.50;100.00;63355.56;5031871;28;20054;-79
2023/09/16 03:46:24;;;;;;;8.98;4.55;;;;;;;-141.50;100.00;63355.56;5028144;28;20042;-79
2023/09/16 03:48:53;;;;;;;7.93;4.65;;;;;;;-141.50;100.00;63355.56;5045994;28;20057;-80
2023/09/16 03:51:22;;;;;;;9.30;4.75;;;;;;;-141.50;100.00;63355.56;5035689;28;20081;-79
2023/09/16 03:53:50;;;;;;;8.38;4.65;;;;;;;-141.50;100.00;63355.56;5031114;28;20045;-79
2023/09/16 03:56:17;;;;;;;8.18;4.75;;;;;;;-141.50;100.00;63355.56;5035597;28;20685;-80
2023/09/16 03:58:44;;;;;;;10.25;4.43;;;;;;;-141.50;100.00;63355.56;5034598;28;20037;-79
2023/09/16 04:01:11;;;;;;;7.60;4.57;;;;;;;-141.50;100.00;63355.56;5030326;28;20522;-79
2023/09/16 04:03:38;;;;;;;9.13;4.32;;;;;;;-141.50;100.00;63355.56;5002676;28;20037;-79
2023/09/16 04:06:05;;;;;;;9.30;5.03;;;;;;;-141.50;100.00;63355.56;5028806;28;20041;-78
2023/09/16 04:08:32;;;;;;;8.05;4.80;;;;;;;-141.50;100.00;63355.56;5030190;28;20037;-79
2023/09/16 04:11:09;;;;;;;6.88;3.95;;;;;;;-141.50;100.00;63355.56;5024605;28;20045;-79
2023/09/16 04:13:37;;;;;;;8.23;4.55;;;;;;;-141.50;100.00;63355.56;5013007;28;20068;-79
2023/09/16 04:16:04;;;;;;;8.35;4.55;;;;;;;-141.50;100.00;63355.56;5028665;28;20077;-79
2023/09/16 04:18:31;;;;;;;10.02;5.22;;;;;;;-141.50;100.00;63355.56;5030159;28;20625;-80
2023/09/16 04:20:58;;;;;;;10.02;5.20;;;;;;;-141.50;100.00;63355.56;5035810;28;20047;-79
2023/09/16 04:23:25;;;;;;;8.45;4.50;;;;;;;-141.50;100.00;63355.56;5030264;28;20431;-80
2023/09/16 04:25:57;;;;;;;8.90;5.13;;;;;;;-141.50;100.00;63355.56;5036164;28;20042;-79
2023/09/16 04:28:24;;;;;;;10.52;5.97;;;;;;;-141.50;100.00;63355.56;5030227;28;20053;-79
2023/09/16 04:30:53;;;;;;;9.20;5.43;;;;;;;-141.50;100.00;63355.56;5029550;28;20068;-80
2023/09/16 04:33:21;;;;;;;10.48;5.63;;;;;;;-141.50;100.00;63355.56;5028816;28;20057;-78
2023/09/16 04:35:50;;;;;;;10.90;5.60;;;;;;;-141.50;100.00;63355.56;5034705;28;20484;-79
2023/09/16 04:38:18;;;;;;;10.43;5.53;;;;;;;-141.50;100.00;63355.56;5029046;28;20055;-80
2023/09/16 04:40:47;;;;;;;8.43;5.22;;;;;;;-141.50;100.00;63355.56;5033021;28;20126;-80
2023/09/16 04:43:15;;;;;;;8.73;4.88;;;;;;;-141.50;100.00;63355.56;5046508;28;20049;-79
2023/09/16 04:45:44;;;;;;;10.45;6.10;;;;;;;-141.50;100.00;63355.56;5013753;28;20432;-79
2023/09/16 04:48:16;;;;;;;9.82;5.43;;;;;;;-141.50;100.00;63355.56;5034122;28;20124;-80
2023/09/16 04:50:47;;;;;;;10.75;5.50;;;;;;;-141.50;100.00;63355.56;5027215;28;20056;-79
2023/09/16 04:53:14;;;;;;;9.88;5.80;;;;;;;-141.50;100.00;63355.56;5026732;28;20046;-78
2023/09/16 04:55:42;;;;;;;9.27;5.70;;;;;;;-141.50;100.00;63355.56;5043163;28;20103;-78
2023/09/16 04:58:09;;;;;;;9.48;5.60;;;;;;;-141.50;100.00;63355.56;5044142;28;20045;-78
2023/09/16 05:00:38;;;;;;;11.38;6.70;;;;;;;-141.50;100.00;63355.56;5027529;28;20037;-80
2023/09/16 05:03:06;;;;;;;14.13;7.18;;;;;;;-141.50;100.00;63355.56;5042628;28;20037;-80
2023/09/16 05:05:35;;;;;;;15.20;7.15;;;;;;;-141.50;100.00;63355.56;5029183;28;20042;-80
2023/09/16 05:08:03;;;;;;;12.95;7.45;;;;;;;-141.50;100.00;63355.56;5041040;28;20990;-80
2023/09/16 05:10:31;;;;;;;15.02;8.02;;;;;;;-141.50;100.00;63355.56;5020966;28;20049;-78
2023/09/16 05:12:58;;;;;;;13.60;7.82;;;;;;;-141.50;100.00;63355.56;5045011;28;20076;-79
2023/09/16 05:15:27;;;;;;;15.45;8.70;;;;;;;-141.50;100.00;63355.56;5007763;28;20120;-79
2023/09/16 05:17:54;;;;;;;18.20;9.25;;;;;;;-141.50;100.00;63355.56;5027777;28;20042;-80
2023/09/16 05:20:21;;;;;;;15.82;9.10;;;;;;;-141.50;100.00;63355.56;5026991;28;20048;-80
2023/09/16 05:22:48;;;;;;;18.77;9.85;;;;;;;-141.50;100.00;63355.56;5036309;28;20065;-79
2023/09/16 05:25:18;;;;;;;17.13;9.45;;;;;;;-141.50;100.00;63355.56;5057747;28;20049;-80
2023/09/16 05:27:45;;;;;;;18.02;9.32;;;;;;;-141.50;100.00;63355.56;5033761;28;20128;-78
2023/09/16 05:30:12;;;;;;;16.08;9.65;;;;;;;-141.50;100.00;63355.56;5031857;28;20048;-78
2023/09/16 05:32:39;;;;;;;15.68;8.68;;;;;;;-141.50;100.00;63355.56;5033738;28;20041;-81
2023/09/16 05:35:07;;;;;;;16.17;9.48;;;;;;;-141.50;100.00;63355.56;5029030;28;20108;-78
2023/09/16 05:37:34;;;;;;;18.88;9.73;;;;;;;-141.50;100.00;63355.56;5014911;28;20133;-78
2023/09/16 05:40:01;;;;;;;18.02;10.32;;;;;;;-141.50;100.00;63355.56;5023093;28;20053;-78
2023/09/16 05:42:29;;;;;;;18.10;9.77;;;;;;;-141.50;100.00;63355.56;5018257;28;20393;-78
2023/09/16 05:44:57;;;;;;;19.60;9.90;;;;;;;-141.50;100.00;63355.56;5025526;28;20046;-79
2023/09/16 05:47:24;;;;;;;18.42;9.90;;;;;;;-141.50;100.00;63355.56;5026271;28;20079;-79
2023/09/16 05:49:51;;;;;;;20.80;10.15;;;;;;;-141.50;100.00;63355.56;5024875;28;20050;-80
2023/09/16 05:52:18;;;;;;;17.67;10.25;;;;;;;-141.50;100.00;63355.56;5025861;28;20521;-79
2023/09/16 05:54:46;;;;;;;18.40;10.00;;;;;;;-141.50;100.00;63355.56;5032462;28;20065;-78
2023/09/16 05:57:13;;;;;;;16.58;9.77;;;;;;;-141.50;100.00;63355.56;5026017;28;20045;-79
2023/09/16 05:59:43;;;;;;;19.95;9.82;;;;;;;-141.50;100.00;63355.56;5007341;28;20038;-80
2023/09/16 06:02:10;;;;;;;19.08;10.25;;;;;;;-141.50;100.00;63355.56;5042260;28;20426;-80
2023/09/16 06:04:37;;;;;;;19.25;10.27;;;;;;;-141.50;100.00;63355.56;5027473;28;20735;-79
2023/09/16 06:07:04;;;;;;;16.70;9.60;;;;;;;-141.50;100.00;63355.56;5025499;28;20037;-79
2023/09/16 06:09:31;;;;;;;19.75;10.98;;;;;;;-141.50;100.00;63355.56;5025871;28;20534;-79
2023/09/16 06:11:58;;;;;;;18.02;9.70;;;;;;;-141.50;100.00;63355.56;5025681;28;20576;-80
2023/09/16 06:14:24;;;;;;;16.40;9.20;;;;;;;-141.50;100.00;63355.56;5025520;28;20042;-79
2023/09/16 06:16:52;;;;;;;18.27;10.07;;;;;;;-141.50;100.00;63355.56;5021084;28;20046;-79
2023/09/16 06:19:19;;;;;;;18.25;10.02;;;;;;;-141.50;100.00;63355.56;5018058;28;20053;-82
2023/09/16 06:21:48;;;;;;;17.17;10.13;;;;;;;-141.50;100.00;63355.56;5016192;28;20539;-80
2023/09/16 06:24:15;;;;;;;15.75;8.45;;;;;;;-141.50;100.00;63355.56;5024556;28;20053;-74
2023/09/16 06:26:42;;;;;;;21.95;10.70;;;;;;;-141.50;100.00;63355.56;5018892;28;20072;-76
2023/09/16 06:29:09;;;;;;;19.67;9.98;;;;;;;-141.50;100.00;63355.56;5022388;28;20407;-79
2023/09/16 06:31:37;;;;;;;17.85;10.60;;;;;;;-141.50;100.00;63355.56;5025456;28;20582;-78
2023/09/16 06:34:05;;;;;;;18.75;10.23;;;;;;;-141.50;100.00;63355.56;5042489;28;26481;-79
2023/09/16 06:36:32;;;;;;;18.73;11.02;;;;;;;-141.50;100.00;63355.56;5025846;28;20069;-78
2023/09/16 06:39:03;;;;;;;18.52;10.35;;;;;;;-141.50;100.00;63355.56;5025429;28;20131;-79
2023/09/16 06:41:30;;;;;;;20.08;11.32;;;;;;;-141.50;100.00;63355.56;5031643;28;20491;-78
2023/09/16 06:44:08;;;;;;;18.08;10.48;;;;;;;-141.50;100.00;63355.56;5031169;28;20626;-79
2023/09/16 06:46:36;;;;;;;19.42;10.20;;;;;;;-141.50;100.00;63355.56;5036315;28;20045;-79
2023/09/16 06:49:03;;;;;;;20.10;10.80;;;;;;;-141.50;100.00;63355.56;5027643;28;20048;-79
2023/09/16 06:51:30;;;;;;;16.95;10.18;;;;;;;-141.50;100.00;63355.56;5026208;28;20057;-77
2023/09/16 06:53:57;;;;;;;17.90;10.77;;;;;;;-141.50;100.00;63355.56;5029836;28;20077;-77
2023/09/16 06:56:24;;;;;;;19.23;10.50;;;;;;;-141.50;100.00;63355.56;5032183;28;20053;-77
2023/09/16 06:58:50;;;;;;;19.92;10.23;;;;;;;-141.50;100.00;63355.56;5030071;28;20045;-77
2023/09/16 07:01:17;;;;;;;19.33;11.40;;;;;;;-141.50;100.00;63355.56;5027949;28;20041;-78
2023/09/16 07:03:44;;;;;;;20.60;10.15;;;;;;;-141.50;100.00;63355.56;5030655;28;20045;-77
2023/09/16 07:06:11;;;;;;;17.02;9.48;;;;;;;-141.50;100.00;63355.56;5030002;28;20041;-79
2023/09/16 07:08:38;;;;;;;15.88;9.13;;;;;;;-141.50;100.00;63355.56;5030062;28;20059;-78
2023/09/16 07:11:05;;;;;;;18.27;10.23;;;;;;;-141.50;100.00;63355.56;5030932;28;20072;-77
2023/09/16 07:13:32;;;;;;;16.75;9.43;;;;;;;-141.50;100.00;63355.56;5030839;28;20128;-78
2023/09/16 07:15:59;;;;;;;16.58;9.82;;;;;;;-141.50;100.00;63355.56;5031914;28;20494;-77
2023/09/16 07:18:26;;;;;;;15.70;9.05;;;;;;;-141.50;100.00;63355.56;5026545;28;20128;-79
2023/09/16 07:20:53;;;;;;;15.65;8.50;;;;;;;-141.50;100.00;63355.56;5045262;28;20049;-77
2023/09/16 07:23:20;;;;;;;15.88;9.10;;;;;;;-141.50;100.00;63355.56;5033069;28;20041;-78
2023/09/16 07:25:54;;;;;;;14.48;8.70;;;;;;;-141.50;100.00;63355.56;5031143;28;20049;-79
2023/09/16 07:28:22;;;;;;;14.35;8.88;;;;;;;-141.50;100.00;63355.56;5030144;28;20087;-78
2023/09/16 07:30:49;;;;;;;15.15;8.23;;;;;;;-141.50;100.00;63355.56;5030158;28;20045;-79
2023/09/16 07:33:16;;;;;;;13.88;7.95;;;;;;;-141.50;100.00;63355.56;5026372;28;20330;-78
2023/09/16 07:35:43;;;;;;;13.93;8.23;;;;;;;-141.50;100.00;63355.56;5024530;28;20090;-79
2023/09/16 07:38:09;;;;;;;12.23;6.90;;;;;;;-141.50;100.00;63355.56;5034309;28;20068;-78
2023/09/16 07:40:38;;;;;;;12.10;7.00;;;;;;;-141.50;100.00;63355.56;5029532;28;20037;-79
2023/09/16 07:43:08;;;;;;;11.82;6.72;;;;;;;-141.50;100.00;63355.56;5043152;28;20104;-78
2023/09/16 07:45:37;;;;;;;10.75;6.35;;;;;;;-141.50;100.00;63355.56;5030521;28;20450;-78
2023/09/16 07:48:07;;;;;;;10.50;6.43;;;;;;;-141.50;100.00;63355.56;5025954;28;20549;-78
2023/09/16 07:50:34;;;;;;;11.07;5.95;;;;;;;-141.50;100.00;63355.56;5023415;28;20047;-78
2023/09/16 07:53:00;;;;;;;11.50;6.32;;;;;;;-141.50;100.00;63355.56;5029019;28;20041;-77
2023/09/16 07:55:27;;;;;;;11.88;6.57;;;;;;;-141.50;100.00;63355.56;5023055;28;20042;-77
2023/09/16 07:57:54;;;;;;;12.07;6.50;;;;;;;-141.50;100.00;63355.56;5030959;28;20159;-77
2023/09/16 08:00:21;;;;;;;9.98;6.45;;;;;;;-141.50;100.00;63355.56;5028504;28;20113;-78
2023/09/16 08:02:47;;;;;;;10.25;5.88;;;;;;;-141.50;100.00;63355.56;5028337;28;20067;-77
2023/09/16 08:05:15;;;;;;;11.27;6.65;;;;;;;-141.50;100.00;63355.56;5026425;28;20046;-79
2023/09/16 08:07:41;;;;;;;9.73;5.63;;;;;;;-141.50;100.00;63355.56;5030612;28;20045;-78
2023/09/16 08:10:09;;;;;;;9.18;6.00;;;;;;;-141.50;100.00;63355.56;5017166;28;20091;-78
2023/09/16 08:12:35;;;;;;;9.68;5.38;;;;;;;-141.50;100.00;63355.56;5030924;28;20045;-78
2023/09/16 08:15:05;;;;;;;8.63;5.40;;;;;;;-141.50;100.00;63355.56;5026673;28;20095;-78
2023/09/16 08:17:37;;;;;;;8.82;5.15;;;;;;;-141.50;100.00;63355.56;5029221;28;20053;-78
2023/09/16 08:20:06;;;;;;;9.00;5.45;;;;;;;-141.50;100.00;63355.56;5028680;28;20052;-79
2023/09/16 08:22:33;;;;;;;7.63;4.97;;;;;;;-141.50;100.00;63355.56;5029122;28;20037;-78
2023/09/16 08:25:02;;;;;;;8.35;5.10;;;;;;;-141.50;100.00;63355.56;5030515;28;20040;-79
2023/09/16 08:27:31;;;;;;;9.50;5.10;;;;;;;-141.50;100.00;63355.56;5028773;28;20049;-78
2023/09/16 08:29:58;;;;;;;6.70;4.38;;;;;;;-141.50;100.00;63355.56;5029904;28;20041;-78
2023/09/16 08:32:28;;;;;;;7.25;4.57;;;;;;;-141.50;100.00;63355.56;5030436;28;20064;-78
2023/09/16 08:34:56;;;;;;;7.15;4.60;;;;;;;-141.50;100.00;63355.56;5029709;28;20354;-79
2023/09/16 08:37:23;;;;;;;8.32;4.85;;;;;;;-141.50;100.00;63355.56;5028029;28;21101;-78
2023/09/16 08:39:50;;;;;;;5.55;3.70;;;;;;;-141.50;100.00;63355.56;5029760;28;20051;-78
2023/09/16 08:42:35;;;;;;;7.43;3.95;;;;;;;-141.50;100.00;63355.56;5026102;28;20550;-79
2023/09/16 08:45:04;;;;;;;5.32;3.88;;;;;;;-141.50;100.00;63355.56;5023164;28;20541;-78
2023/09/16 08:47:39;;;;;;;6.97;4.10;;;;;;;-141.50;100.00;63355.56;5027606;28;20050;-78
2023/09/16 08:50:08;;;;;;;6.05;3.83;;;;;;;-141.50;100.00;63355.56;5040074;28;20073;-78
2023/09/16 08:52:54;;;;;;;7.95;4.38;;;;;;;-141.50;100.00;63355.56;5028086;28;20060;-78
2023/09/16 08:55:21;;;;;;;6.47;4.13;;;;;;;-141.50;100.00;63355.56;5028147;28;20049;-78
2023/09/16 08:57:52;;;;;;;5.85;3.70;;;;;;;-141.50;100.00;63355.56;5044231;28;20060;-78
2023/09/16 09:00:19;;;;;;;8.02;3.75;;;;;;;-141.50;100.00;63355.56;5025048;28;20127;-78
2023/09/16 09:02:48;;;;;;;5.97;4.03;;;;;;;-141.50;100.00;63355.56;5025901;28;20052;-78
2023/09/16 09:05:16;;;;;;;5.88;3.92;;;;;;;-141.50;100.00;63355.56;5023931;28;20045;-78
2023/09/16 09:07:43;;;;;;;6.30;3.70;;;;;;;-141.50;100.00;63355.56;5026429;28;20045;-78
2023/09/16 09:10:12;;;;;;;5.20;3.25;;;;;;;-141.50;100.00;63355.56;5027234;28;20045;-78
2023/09/16 09:12:42;;;;;;;5.50;3.53;;;;;;;-141.50;100.00;63355.56;5023723;28;20088;-78
2023/09/16 09:15:11;;;;;;;5.22;3.60;;;;;;;-141.50;100.00;63355.56;5027522;28;20052;-78
2023/09/16 09:17:40;;;;;;;7.18;3.80;;;;;;;-141.50;100.00;63355.56;5026319;28;20115;-78
2023/09/16 09:20:11;;;;;;;7.88;3.97;;;;;;;-141.50;100.00;63355.56;5011485;28;20122;-80
2023/09/16 09:22:41;;;;;;;7.05;3.90;;;;;;;-141.50;100.00;63355.56;5032521;28;20506;-78
2023/09/16 09:25:08;;;;;;;6.40;3.53;;;;;;;-141.50;100.00;63355.56;5035496;28;20049;-78
2023/09/16 09:27:35;;;;;;;5.70;3.42;;;;;;;-141.50;100.00;63355.56;5034877;28;20289;-78
2023/09/16 09:30:04;;;;;;;6.57;3.25;;;;;;;-141.50;100.00;63355.56;5046771;28;20041;-77
2023/09/16 09:32:31;;;;;;;4.95;3.33;;;;;;;-141.50;100.00;63355.56;5030927;28;20590;-77
2023/09/16 09:35:04;;;;;;;4.65;2.90;;;;;;;-141.50;100.00;63355.56;5033236;28;20048;-78
2023/09/16 09:37:32;;;;;;;5.15;3.53;;;;;;;-141.50;100.00;63355.56;5041990;28;20527;-79
2023/09/16 09:40:13;;;;;;;4.22;3.08;;;;;;;-141.50;100.00;63355.56;5045476;28;20868;-79
2023/09/16 09:42:41;;;;;;;4.53;3.15;;;;;;;-141.50;100.00;63355.56;5040726;28;20350;-78
2023/09/16 09:45:10;;;;;;;5.07;3.15;;;;;;;-141.50;100.00;63355.56;5025439;28;20046;-78
2023/09/16 09:47:38;;;;;;;4.38;3.05;;;;;;;-141.50;100.00;63355.56;5026594;28;20034;-78
2023/09/16 09:50:07;;;;;;;5.65;3.10;;;;;;;-141.50;100.00;63355.56;5026385;28;20076;-78
2023/09/16 09:52:36;;;;;;;4.47;3.15;;;;;;;-141.50;100.00;63355.56;5022881;28;20037;-78
2023/09/16 09:55:03;;;;;;;5.00;2.90;;;;;;;-141.50;100.00;63355.56;5020048;28;20659;-78
2023/09/16 09:57:32;;;;;;;4.93;2.75;;;;;;;-141.50;100.00;63355.56;5027104;28;20414;-78
2023/09/16 09:59:59;;;;;;;4.55;2.88;;;;;;;-141.50;100.00;63355.56;5027028;28;20452;-78
2023/09/16 10:02:27;;;;;;;5.25;3.28;;;;;;;-141.50;100.00;63355.56;5032890;28;20781;-77
2023/09/16 10:04:57;;;;;;;3.60;2.85;;;;;;;-141.50;100.00;63355.56;5025586;28;20065;-77
2023/09/16 10:07:28;;;;;;;4.47;2.75;;;;;;;-141.50;100.00;63355.56;5026945;28;20621;-78
2023/09/16 10:09:55;;;;;;;3.85;2.55;;;;;;;-141.50;100.00;63355.56;5028774;28;20111;-77
2023/09/16 10:12:22;;;;;;;3.30;2.40;;;;;;;-141.50;100.00;63355.56;5028092;28;20053;-78
2023/09/16 10:14:49;;;;;;;3.67;2.58;;;;;;;-141.50;100.00;63355.56;5030196;28;20484;-77
2023/09/16 10:17:16;;;;;;;3.95;2.78;;;;;;;-141.50;100.00;63355.56;5043527;28;20049;-78
2023/09/16 10:19:44;;;;;;;3.72;2.55;;;;;;;-141.50;100.00;63355.56;5026993;28;20049;-77
2023/09/16 10:22:12;;;;;;;3.40;2.40;;;;;;;-141.50;100.00;63355.56;5026019;28;20153;-78
2023/09/16 10:24:41;;;;;;;5.82;2.42;;;;;;;-141.50;100.00;63355.56;5027924;28;20723;-78
2023/09/16 10:27:21;;;;;;;2.97;2.03;;;;;;;-141.50;100.00;63355.56;5028928;28;20045;-77
2023/09/16 10:29:49;;;;;;;2.83;1.90;;;;;;;-141.50;100.00;63355.56;5023879;28;20046;-77
2023/09/16 10:32:16;;;;;;;2.92;2.30;;;;;;;-141.50;100.00;63355.56;5027454;28;20052;-77
2023/09/16 10:34:47;;;;;;;3.05;2.33;;;;;;;-141.50;100.00;63355.56;5024849;28;20460;-77
2023/09/16 10:37:18;;;;;;;2.78;2.20;;;;;;;-141.50;100.00;63355.56;5024990;28;20045;-77
2023/09/16 10:39:49;;;;;;;3.20;2.13;;;;;;;-141.50;100.00;63355.56;5025800;28;20052;-77
2023/09/16 10:42:16;;;;;;;2.58;2.15;;;;;;;-141.50;100.00;63355.56;5025099;28;20100;-78
2023/09/16 10:44:45;;;;;;;4.50;2.55;;;;;;;-141.50;100.00;63355.56;5024325;28;20136;-77
2023/09/16 10:47:16;;;;;;;3.35;2.50;;;;;;;-141.50;100.00;63355.56;5024422;28;20050;-77
2023/09/16 10:49:45;;;;;;;2.58;2.15;;;;;;;-141.50;100.00;63355.56;5024897;28;20048;-77
2023/09/16 10:52:18;;;;;;;2.42;1.75;;;;;;;-141.50;100.00;63355.56;5022715;28;20443;-77
2023/09/16 10:54:56;;;;;;;4.55;2.35;;;;;;;-141.50;100.00;63355.56;5026559;28;20049;-76
2023/09/16 10:57:30;;;;;;;3.42;2.30;;;;;;;-141.50;100.00;63355.56;5025417;28;20539;-76
2023/09/16 11:00:03;;;;;;;4.03;2.50;;;;;;;-141.50;100.00;63355.56;5022838;28;20054;-77
2023/09/16 11:02:36;;;;;;;2.90;2.35;;;;;;;-141.50;100.00;63355.56;5024926;28;20049;-77
2023/09/16 11:05:04;;;;;;;3.58;2.40;;;;;;;-141.50;100.00;63355.56;5004745;28;20057;-77
2023/09/16 11:07:31;;;;;;;3.58;2.10;;;;;;;-141.50;100.00;63355.56;5025972;28;20048;-75
2023/09/16 11:10:01;;;;;;;2.88;2.00;;;;;;;-141.50;100.00;63355.56;5021726;28;20042;-77
2023/09/16 11:12:28;;;;;;;3.58;2.00;;;;;;;-141.50;100.00;63355.56;5022784;28;20053;-77